Station: Ferny Creek  

  Atmospheric Gas Attenuation - ITU Rec 676-11   ----------------- dB/100km -----------------
Date Time Temp RH % AH g/m3 Dew Point Wind Direction Speed kph Gust kph Barometer mB Rainfall Since 9am 24GHz 47GHz 76GHz 122GHz 134GHz 241GHz
08/05 12:30 10 99 9.3 9.9 6 13 1022.9 2.8 21.3 28.6 45.2 118.8 114.1 392.9
08/05 12:20 9.9 99 9.25 9.7 9 13 1023.1 2.6 21.2 28.6 45.1 118.4 113.6 391.0
08/05 12:10 9.7 99 9.13 9.5 11 19 1023.2 2.6 20.9 28.4 44.7 117.3 112.2 386.0
08/05 12:00 9.6 99 9.07 9.5 7 26 1023.2 2 20.8 28.4 44.5 116.7 111.5 383.5
08/05 11:50 10 99 9.3 9.8 7 15 1023.1 1.6 21.3 28.6 45.2 118.8 114.2 393.0
08/05 11:40 9.9 99 9.25 9.7 9 15 1023.2 1.6 21.2 28.6 45.1 118.4 113.6 391.0
08/05 11:30 9.9 99 9.25 9.8 6 13 1023.2 1.6 21.2 28.6 45.1 118.4 113.6 391.0
08/05 11:20 10.1 99 9.36 9.9 6 7 1023.1 1.6 21.4 28.7 45.4 119.3 114.9 395.5
08/05 11:10 9.7 99 9.13 9.5 6 11 1023.2 1.6 20.9 28.4 44.7 117.3 112.2 386.0
08/05 11:00 9.8 99 9.19 9.7 9 20 1023 1.6 21.0 28.5 44.9 117.8 112.9 388.4
08/05 10:50 9.9 99 9.25 9.7 9 11 1023 1.4 21.2 28.6 45.1 118.4 113.6 390.9
08/05 10:40 9.8 99 9.19 9.6 6 7 1022.8 0.6 21.0 28.5 44.9 117.8 112.8 388.4
08/05 10:30 9.8 99 9.19 9.7 4 11 1022.8 0.6 21.0 28.5 44.9 117.8 112.8 388.4
08/05 10:20 9.6 99 9.07 9.4 9 11 1022.6 0.6 20.8 28.3 44.4 116.7 111.4 383.3
08/05 10:10 9.7 99 9.13 9.5 6 13 1022.5 0.6 20.9 28.4 44.6 117.2 112.1 385.8
08/05 10:00 9.6 99 9.07 9.5 6 11 1022.6 0.4 20.8 28.3 44.4 116.7 111.4 383.3
08/05 09:50 9.5 99 9.01 9.3 7 9 1022.5 0.4 20.7 28.3 44.2 116.1 110.7 380.7
08/05 09:40 9.5 99 9.01 9.3 6 7 1022.4 0.2 20.7 28.3 44.2 116.1 110.7 380.7
08/05 09:30 9.5 99 9.01 9.4 6 13 1022.4 0.2 20.7 28.3 44.2 116.1 110.7 380.7
08/05 09:20 9.5 99 9.01 9.3 6 9 1022.4 0.2 20.7 28.3 44.2 116.1 110.7 380.7
08/05 09:10 9.3 99 8.9 9.1 11 19 1022.3 0.2 20.4 28.1 43.9 115.1 109.4 376.2
08/05 09:00 9.5 99 9.01 9.4 7 20 1022.2 0.2 20.7 28.2 44.2 116.1 110.7 380.7
08/05 08:50 9.5 99 9.01 9.3 9 19 1022.3 16.4 20.7 28.3 44.2 116.1 110.7 380.7
08/05 08:40 9.4 99 8.96 9.2 13 20 1022 16.2 20.6 28.2 44.1 115.6 110.1 378.6
08/05 08:30 9.5 99 9.01 9.4 9 19 1021.9 15.4 20.7 28.2 44.2 116.0 110.6 380.6
08/05 08:20 9.4 99 8.96 9.2 7 9 1021.7 15.4 20.6 28.2 44.0 115.6 110.0 378.5
08/05 08:10 9.5 99 9.01 9.3 6 11 1021.6 15.4 20.7 28.2 44.2 116.0 110.6 380.5
08/05 08:00 9.4 99 8.96 9.3 9 22 1021.3 15.4 20.6 28.2 44.0 115.5 110.0 378.4
08/05 07:50 9.4 99 8.96 9.2 2 2 1021.3 15.4 20.6 28.2 44.0 115.5 110.0 378.4
08/05 07:40 9.4 99 8.96 9.2 6 7 1021 15.4 20.6 28.1 44.0 115.5 110.0 378.3
08/05 07:30 9.4 99 8.96 9.3 9 20 1020.8 14.8 20.6 28.1 44.0 115.5 110.0 378.2
08/05 07:20 9.4 99 8.96 9.2 7 9 1020.8 14.8 20.6 28.1 44.0 115.5 110.0 378.2
08/05 07:10 9.4 99 8.96 9.2 9 13 1020.7 14.8 20.6 28.1 44.0 115.5 109.9 378.2
08/05 07:00 9.4 99 8.96 9.3 7 17 1020.7 14.8 20.6 28.1 44.0 115.5 109.9 378.2
08/05 06:50 9.5 99 9.01 9.3 6 9 1020.5 14.8 20.7 28.2 44.1 115.9 110.5 380.1
08/05 06:40 9.5 99 9.01 9.3 4 6 1020.5 14.4 20.7 28.2 44.1 115.9 110.5 380.1
08/05 06:30 9.4 99 8.96 9.3 7 19 1020.4 14.4 20.6 28.1 44.0 115.4 109.9 378.1
08/05 06:20 9.5 99 9.01 9.3 7 9 1020.5 14.2 20.7 28.2 44.1 115.9 110.5 380.1
08/05 06:10 9.4 99 8.96 9.2 7 11 1020.4 13.4 20.6 28.1 44.0 115.4 109.9 378.1
08/05 06:00 9.4 99 8.96 9.3 4 7 1020.3 13.2 20.6 28.1 44.0 115.4 109.9 378.1
08/05 05:50 9.4 99 8.96 9.2 4 6 1020 12.8 20.6 28.1 44.0 115.4 109.9 378.0
08/05 05:40 9.4 99 8.96 9.2 9 11 1020 12.6 20.6 28.1 44.0 115.4 109.9 378.0
08/05 05:30 9.4 99 8.96 9.3 6 13 1020 12.4 20.6 28.1 44.0 115.4 109.9 378.0
08/05 05:20 9.3 99 8.9 9.1 4 7 1019.9 11.8 20.5 28.0 43.7 114.8 109.2 375.4
08/05 05:10 9.3 99 8.9 9.1 4 6 1019.9 11.4 20.5 28.0 43.7 114.8 109.2 375.4
08/05 05:00 9.3 99 8.9 9.2 6 15 1019.8 11.4 20.5 28.0 43.7 114.8 109.2 375.4
08/05 04:50 9.3 99 8.9 9.1 4 6 1019.7 11.2 20.5 28.0 43.7 114.8 109.1 375.4
08/05 04:40 9.2 99 8.84 9 7 11 1019.6 11 20.3 27.9 43.5 114.3 108.4 372.8
08/05 04:30 9.1 99 8.79 9 6 11 1019.5 11 20.2 27.9 43.4 113.8 107.8 370.8
08/05 04:20 9.1 99 8.79 8.9 7 9 1019.4 10.8 20.2 27.9 43.4 113.8 107.8 370.8
08/05 04:10 9.1 99 8.79 8.9 4 4 1019.5 10.8 20.2 27.9 43.4 113.8 107.8 370.8
08/05 04:00 9 99 8.73 8.9 7 13 1019.4 10.8 20.1 27.8 43.2 113.3 107.1 368.3
08/05 03:50 9 99 8.73 8.8 6 11 1019.3 10.8 20.1 27.8 43.1 113.2 107.1 368.2
08/05 03:40 8.9 99 8.68 8.7 4 6 1019.3 10.8 20.0 27.8 43.0 112.8 106.5 366.2
08/05 03:30 8.9 99 8.68 8.8 6 19 1019.2 10.8 20.0 27.7 43.0 112.8 106.5 366.2
08/05 03:20 8.8 99 8.62 8.6 6 9 1019.3 10.8 19.9 27.7 42.8 112.3 105.8 363.7
08/05 03:10 8.8 99 8.62 8.6 6 7 1019.2 10.8 19.9 27.7 42.8 112.3 105.8 363.7
08/05 03:00 8.8 99 8.62 8.7 7 17 1019.3 10.8 19.9 27.7 42.8 112.3 105.8 363.7
08/05 02:50 8.7 99 8.56 8.5 9 15 1019.3 10.8 19.7 27.6 42.6 111.7 105.1 361.2
08/05 02:40 8.7 99 8.56 8.5 7 11 1019.3 10.8 19.7 27.6 42.6 111.7 105.1 361.2
08/05 02:30 8.7 99 8.56 8.6 6 17 1019.3 10.8 19.7 27.6 42.6 111.7 105.1 361.2
08/05 02:20 8.6 99 8.51 8.4 7 11 1019.3 10.8 19.6 27.5 42.4 111.3 104.5 359.2
08/05 02:10 8.6 99 8.51 8.4 9 13 1019.4 10.8 19.6 27.6 42.4 111.3 104.5 359.2
08/05 02:00 8.6 99 8.51 8.5 7 19 1019.3 10.8 19.6 27.5 42.4 111.3 104.5 359.2
08/05 01:50 8.5 99 8.46 8.3 11 15 1019.4 10.8 19.5 27.5 42.3 110.9 104.0 357.2
08/05 01:40 8.5 99 8.46 8.3 11 15 1019.5 10.8 19.5 27.5 42.3 110.9 104.0 357.2
08/05 01:30 8.4 99 8.4 8.3 7 15 1019.6 10.8 19.4 27.4 42.1 110.3 103.3 354.7
08/05 01:20 8.3 99 8.35 8.1 6 6 1019.8 10.8 19.3 27.4 41.9 109.9 102.7 352.7
08/05 01:10 8.2 99 8.29 8 7 9 1019.7 10.8 19.2 27.3 41.7 109.4 102.0 350.2
08/05 01:00 8.1 99 8.24 8 6 9 1019.8 10.8 19.1 27.3 41.5 108.9 101.4 348.2
08/05 00:50 7.9 99 8.14 7.7 9 11 1019.9 10.8 18.9 27.1 41.2 108.1 100.3 344.2
08/05 00:40 7.8 99 8.08 7.6 7 11 1020 10.8 18.8 27.1 41.0 107.5 99.6 341.7
08/05 00:30 7.7 99 8.03 7.6 6 11 1020 10.8 18.7 27.0 40.9 107.1 99.0 339.6
08/05 00:20 7.5 99 7.93 7.3 4 6 1020.2 10.8 18.4 26.9 40.5 106.3 97.8 335.6
08/05 00:10 7.5 99 7.93 7.3 11 20 1020.2 10.8 18.4 26.9 40.5 106.3 97.8 335.6
08/05 00:00 7.4 99 7.88 7.3 4 9 1020.4 10.8 18.3 26.9 40.4 105.8 97.3 333.6
07/05 23:50 7.3 99 7.83 7.1 6 7 1020.4 10.8 18.2 26.8 40.2 105.4 96.7 331.6
07/05 23:40 7.3 99 7.83 7.1 4 4 1020.5 10.6 18.2 26.8 40.2 105.4 96.7 331.6
07/05 23:30 7.2 99 7.78 7.1 6 17 1020.4 10.6 18.1 26.8 40.1 105.0 96.1 329.5
07/05 23:20 7.1 99 7.72 6.9 4 7 1020.5 10.6 18.0 26.7 39.9 104.4 95.4 327.0
07/05 23:10 7 99 7.67 6.8 4 4 1020.8 10.6 17.9 26.7 39.7 104.0 94.9 325.1
07/05 23:00 7 99 7.67 6.9 4 9 1020.9 10.6 17.9 26.7 39.7 104.0 94.9 325.1
07/05 22:50 6.9 99 7.63 6.7 6 7 1021 10.4 17.8 26.6 39.6 103.7 94.4 323.6
07/05 22:40 6.9 99 7.63 6.7 6 11 1021 10.2 17.8 26.6 39.6 103.7 94.4 323.6
07/05 22:30 6.8 99 7.58 6.7 4 7 1021.1 10 17.7 26.6 39.4 103.3 93.9 321.5
07/05 22:20 6.8 99 7.58 6.6 6 7 1021.2 9.8 17.7 26.6 39.4 103.3 93.9 321.6
07/05 22:10 6.8 99 7.58 6.6 2 2 1021.3 9.8 17.7 26.6 39.4 103.3 93.9 321.6
07/05 22:00 6.7 99 7.53 6.6 4 7 1021.4 9.8 17.6 26.5 39.3 102.9 93.3 319.6
07/05 21:50 6.7 99 7.53 6.5 2 4 1021.3 9.8 17.6 26.5 39.3 102.9 93.3 319.5
07/05 21:40 6.6 99 7.48 6.4 6 9 1021.3 9.8 17.5 26.5 39.1 102.4 92.7 317.5
07/05 21:30 6.6 99 7.48 6.5 4 13 1021.2 9.8 17.5 26.5 39.1 102.4 92.7 317.5
07/05 21:20 6.6 99 7.48 6.4 6 6 1021.1 9.8 17.5 26.5 39.1 102.4 92.7 317.4
07/05 21:10 6.6 98 7.4 6.3 4 4 1021.2 9.8 17.3 26.3 38.8 101.5 91.6 313.5
07/05 21:00 6.6 98 7.4 6.3 4 9 1021.2 9.8 17.3 26.3 38.8 101.5 91.6 313.5
07/05 20:50 6.5 98 7.35 6.2 4 6 1021.3 9.8 17.2 26.3 38.6 101.1 91.0 311.5
07/05 20:40 6.5 98 7.35 6.2 4 6 1021.4 9.6 17.2 26.3 38.6 101.1 91.0 311.5
07/05 20:30 6.5 98 7.35 6.2 4 11 1021.5 9.2 17.2 26.3 38.6 101.1 91.0 311.5
07/05 20:20 6.5 97 7.28 6 6 7 1021.5 8.8 17.1 26.2 38.3 100.3 90.0 308.1
07/05 20:10 6.5 97 7.28 6 4 6 1021.6 8.6 17.1 26.2 38.3 100.3 90.0 308.1
07/05 20:00 6.5 97 7.28 6.1 6 11 1021.6 8.4 17.1 26.2 38.3 100.3 90.0 308.1

Last Refresh: 08-May-2026 12:07:31

Bureau of Meteorology